Time;durP1;ratioP1;P1;durP2;ratioP2;P2;SDS_P1;SDS_P2;PMS_P1;PMS_P2;Temp;Humidity;BMP_temperature;BMP_pressure;BME280_temperature;BME280_humidity;BME280_pressure;Samples;Min_cycle;Max_cycle;Signal;HPM_P1;HPM_P2
2022/06/19 00:00:21;;;;;;;10.90;2.23;;;;;;;18.61;65.63;100665.00;6313614;22;20025;-88
2022/06/19 00:02:46;;;;;;;11.98;2.30;;;;;;;18.65;65.80;100674.38;6312933;22;20006;-88
2022/06/19 00:05:15;;;;;;;8.13;1.73;;;;;;;18.53;65.84;100654.59;6287226;22;20006;-88
2022/06/19 00:07:48;;;;;;;10.80;1.85;;;;;;;18.46;65.56;100660.34;6312729;22;20010;-88
2022/06/19 00:10:30;;;;;;;11.70;2.08;;;;;;;18.42;65.27;100656.47;6341100;22;20405;-88
2022/06/19 00:13:04;;;;;;;8.77;1.80;;;;;;;18.34;65.74;100657.03;6286730;22;20011;-88
2022/06/19 00:15:32;;;;;;;6.55;1.75;;;;;;;18.30;65.39;100651.25;6311823;22;20030;-88
2022/06/19 00:18:00;;;;;;;7.37;1.90;;;;;;;18.23;65.30;100639.69;6339730;22;20378;-88
2022/06/19 00:20:31;;;;;;;9.15;1.73;;;;;;;18.15;65.79;100646.53;6312559;22;20014;-88
2022/06/19 00:22:59;;;;;;;8.13;2.13;;;;;;;18.17;65.64;100649.88;6286439;22;19999;-88
2022/06/19 00:25:34;;;;;;;;;;;;;;;;;;;;;
2022/06/19 00:28:04;;;;;;;7.80;1.98;;;;;;;18.14;65.73;100666.03;6340319;22;20078;-88
2022/06/19 00:30:37;;;;;;;11.13;2.03;;;;;;;18.10;65.76;100684.13;6312040;22;20022;-88
2022/06/19 00:33:07;;;;;;;12.15;1.98;;;;;;;18.01;65.39;100683.84;6287707;22;20009;-88
2022/06/19 00:35:43;;;;;;;8.50;1.95;;;;;;;17.97;65.61;100694.53;6286663;22;20003;-88
2022/06/19 00:38:34;;;;;;;10.52;2.10;;;;;;;17.94;64.98;100683.25;6287515;22;20002;-88
2022/06/19 00:41:04;;;;;;;11.00;2.40;;;;;;;17.86;65.85;100681.81;6313514;22;20011;-88
2022/06/19 00:44:05;;;;;;;10.40;2.07;;;;;;;17.84;65.53;100690.31;6312550;22;20006;-88
2022/06/19 00:46:45;;;;;;;8.93;1.52;;;;;;;17.76;65.76;100676.28;6312626;22;19999;-88
2022/06/19 00:49:32;;;;;;;12.30;2.17;;;;;;;17.75;65.34;100691.94;6312581;22;20089;-88
2022/06/19 00:52:10;;;;;;;11.75;2.13;;;;;;;17.63;65.80;100692.16;6338516;22;20003;-88
2022/06/19 00:54:48;;;;;;;7.32;1.35;;;;;;;17.47;65.90;100680.28;6312999;22;20375;-88
2022/06/19 00:57:28;;;;;;;12.70;2.23;;;;;;;17.44;65.29;100678.06;6312369;22;20060;-87
2022/06/19 01:00:08;;;;;;;12.70;2.13;;;;;;;17.31;64.77;100684.03;6312286;22;20444;-88
2022/06/19 01:02:42;;;;;;;10.20;2.03;;;;;;;17.31;64.56;100689.50;6311891;22;20045;-88
2022/06/19 01:05:14;;;;;;;11.02;1.98;;;;;;;17.21;64.44;100676.53;6311909;22;20007;-87
2022/06/19 01:07:43;;;;;;;11.88;1.75;;;;;;;17.15;64.39;100675.69;6339431;22;20081;-88
2022/06/19 01:10:18;;;;;;;10.30;2.00;;;;;;;17.11;63.86;100671.00;6339473;22;20006;-88
2022/06/19 01:12:48;;;;;;;10.73;1.88;;;;;;;17.06;64.05;100670.97;6287380;22;20360;-89
2022/06/19 01:15:19;;;;;;;15.57;2.20;;;;;;;17.03;63.54;100683.28;6339898;22;20010;-88
2022/06/19 01:17:58;;;;;;;12.93;1.90;;;;;;;17.05;63.52;100735.09;6312053;22;20500;-88
2022/06/19 01:20:30;;;;;;;8.52;2.10;;;;;;;16.85;63.31;100813.25;6286926;22;20049;-88
2022/06/19 01:23:16;;;;;;;13.37;2.33;;;;;;;16.94;62.62;100861.06;6311779;22;20504;-88
2022/06/19 01:25:43;;;;;;;11.57;1.85;;;;;;;16.64;63.42;100788.38;6311612;22;20060;-88
2022/06/19 01:28:46;;;;;;;11.35;2.00;;;;;;;16.52;63.78;100734.84;6339298;22;20013;-88
2022/06/19 01:31:18;;;;;;;8.90;2.00;;;;;;;16.54;63.60;100788.28;6312090;22;20002;-88
2022/06/19 01:34:26;;;;;;;12.07;1.80;;;;;;;16.46;61.69;100818.84;6339209;22;20053;-89
2022/06/19 01:37:08;;;;;;;8.87;2.10;;;;;;;16.25;62.42;100776.69;6339217;22;20089;-88
2022/06/19 01:39:49;;;;;;;10.88;2.10;;;;;;;16.28;60.84;100785.25;6310074;22;20488;-88
2022/06/19 01:42:17;;;;;;;12.00;2.00;;;;;;;16.15;62.04;100837.63;6311466;22;20003;-88
2022/06/19 01:44:53;;;;;;;13.45;2.10;;;;;;;16.07;61.27;100833.41;6286028;22;20046;-88
2022/06/19 01:47:23;;;;;;;12.25;2.10;;;;;;;16.08;60.70;100785.00;6339382;22;20436;-88
2022/06/19 01:50:00;;;;;;;10.80;1.70;;;;;;;15.91;60.91;100777.63;6312454;22;20095;-88
2022/06/19 01:52:40;;;;;;;16.15;2.10;;;;;;;15.85;61.14;100814.22;6338670;22;19999;-88
2022/06/19 01:55:13;;;;;;;14.32;2.17;;;;;;;15.75;61.10;100782.06;6339570;22;20018;-88
2022/06/19 01:57:42;;;;;;;12.73;1.77;;;;;;;15.70;60.05;100801.13;6312022;22;20007;-88
2022/06/19 02:00:15;;;;;;;14.13;2.15;;;;;;;15.77;59.56;100825.56;6312193;22;20003;-88
2022/06/19 02:02:55;;;;;;;10.80;1.93;;;;;;;15.67;58.95;100795.31;6311951;22;20424;-88
2022/06/19 02:05:41;;;;;;;14.45;1.85;;;;;;;15.52;58.55;100820.53;6311969;22;20003;-88
2022/06/19 02:08:13;;;;;;;15.35;2.08;;;;;;;15.40;58.44;100817.88;6339478;22;20056;-88
2022/06/19 02:10:51;;;;;;;11.02;1.73;;;;;;;15.36;56.93;100801.13;6311721;22;20002;-88
2022/06/19 02:13:29;;;;;;;8.95;1.48;;;;;;;15.35;57.64;100820.53;6311573;22;20003;-88
2022/06/19 02:16:24;;;;;;;12.53;1.90;;;;;;;15.31;57.70;100797.50;6339577;22;20011;-88
2022/06/19 02:19:13;;;;;;;12.90;1.60;;;;;;;15.25;57.10;100797.41;6311674;22;20026;-88
2022/06/19 02:22:14;;;;;;;13.02;1.85;;;;;;;15.32;57.51;100807.34;6287809;22;20010;-88
2022/06/19 02:24:46;;;;;;;13.65;1.80;;;;;;;15.28;56.95;100820.69;6324997;22;20009;-88
2022/06/19 02:27:31;;;;;;;11.63;1.30;;;;;;;15.24;56.60;100803.94;6312317;22;20090;-88
2022/06/19 02:30:01;;;;;;;12.97;2.00;;;;;;;15.25;56.31;100821.16;6311523;22;20034;-88
2022/06/19 02:32:51;;;;;;;6.40;1.23;;;;;;;15.30;56.74;100829.47;6311569;22;20003;-88
2022/06/19 02:35:26;;;;;;;14.48;1.77;;;;;;;15.24;56.72;100817.63;6311027;22;20010;-88
2022/06/19 02:37:55;;;;;;;9.75;2.08;;;;;;;15.24;56.35;100828.56;6339596;22;20006;-87
2022/06/19 02:40:48;;;;;;;7.20;1.33;;;;;;;15.31;56.40;100828.41;6312648;22;20015;-89
2022/06/19 02:43:32;;;;;;;8.43;1.33;;;;;;;15.32;56.25;100840.16;6341160;22;20049;-88
2022/06/19 02:45:58;;;;;;;10.38;1.52;;;;;;;15.36;55.78;100833.94;6313560;22;20007;-88
2022/06/19 02:48:33;;;;;;;9.48;1.65;;;;;;;15.33;55.41;100814.47;6313146;22;20013;-88
2022/06/19 02:51:01;;;;;;;10.48;1.70;;;;;;;15.35;55.33;100810.41;6313448;22;20011;-88
2022/06/19 02:53:27;;;;;;;14.48;1.67;;;;;;;15.27;54.73;100795.25;6312838;22;20003;-87
2022/06/19 02:56:03;;;;;;;13.47;1.50;;;;;;;15.32;54.18;100821.84;6313389;22;20006;-87
2022/06/19 02:58:39;;;;;;;;;;;;;;;;;;;;;
2022/06/19 03:01:37;;;;;;;;;;;;;;;;;;;;;
2022/06/19 03:04:18;;;;;;;7.18;1.10;;;;;;;15.24;54.36;100907.81;6340852;22;20086;-88
2022/06/19 03:06:56;;;;;;;7.43;1.30;;;;;;;15.18;53.96;100859.59;6341213;22;20007;-88
2022/06/19 03:09:37;;;;;;;5.27;1.17;;;;;;;15.18;53.74;100848.66;6313479;22;20425;-88
2022/06/19 03:12:20;;;;;;;8.55;1.13;;;;;;;15.16;54.69;100852.72;6340756;22;20003;-88
2022/06/19 03:15:01;;;;;;;5.68;1.05;;;;;;;15.19;53.18;100863.16;6312760;22;20010;-88
2022/06/19 03:17:32;;;;;;;9.25;1.15;;;;;;;15.14;53.39;100838.47;6289633;22;20006;-88
2022/06/19 03:20:24;;;;;;;7.60;1.33;;;;;;;15.05;52.72;100818.94;6313118;22;20092;-89
2022/06/19 03:23:06;;;;;;;10.50;1.77;;;;;;;15.07;53.13;100801.22;6316142;22;20015;-88
2022/06/19 03:25:34;;;;;;;9.15;1.30;;;;;;;15.08;53.27;100797.38;6287828;22;20028;-90
2022/06/19 03:28:04;;;;;;;4.68;0.88;;;;;;;15.09;53.64;100804.53;6313441;22;20320;-90
2022/06/19 03:30:40;;;;;;;7.70;1.35;;;;;;;15.27;53.04;100824.50;6340780;22;20002;-91
2022/06/19 03:33:11;;;;;;;4.05;0.95;;;;;;;15.26;51.86;100820.94;6313520;22;20006;-90
2022/06/19 03:35:52;;;;;;;5.60;0.93;;;;;;;15.31;52.17;100798.34;6313262;22;20056;-91
2022/06/19 03:38:24;;;;;;;7.05;0.82;;;;;;;15.43;52.08;100795.50;6313078;22;20037;-91
2022/06/19 03:41:07;;;;;;;11.38;1.67;;;;;;;15.40;51.43;100794.09;6311958;22;20011;-91
2022/06/19 03:46:42;;;;;;;8.20;1.10;;;;;;;15.33;51.85;100732.47;6318829;22;20436;-90
2022/06/19 03:49:13;;;;;;;4.30;0.73;;;;;;;15.37;51.69;100764.53;6287273;22;20450;-91
2022/06/19 03:51:43;;;;;;;7.45;0.90;;;;;;;15.32;51.69;100783.56;6287392;22;20011;-91
2022/06/19 03:54:19;;;;;;;;;;;;;;;;;;;;;
2022/06/19 03:56:54;;;;;;;9.88;1.50;;;;;;;15.33;51.39;100907.44;6340838;22;20073;-91
2022/06/19 03:59:31;;;;;;;7.18;0.80;;;;;;;15.39;51.44;100893.59;6312927;22;20075;-91
2022/06/19 04:02:12;;;;;;;;;;;;;;;;;;;;;
2022/06/19 04:04:46;;;;;;;5.25;1.10;;;;;;;15.48;50.01;100833.03;6340451;22;20512;-91
2022/06/19 04:07:18;;;;;;;7.45;0.93;;;;;;;15.49;49.77;100829.25;6313011;22;20085;-91
2022/06/19 04:09:56;;;;;;;;;;;;;;;;;;;;;
2022/06/19 04:12:27;;;;;;;4.40;0.63;;;;;;;15.42;48.87;100771.97;6340249;22;20074;-91
2022/06/19 04:15:02;;;;;;;4.33;0.67;;;;;;;15.46;49.71;100758.63;6286673;22;20011;-91
2022/06/19 04:17:38;;;;;;;7.72;0.82;;;;;;;15.40;50.15;100703.88;6287870;22;20002;-91
2022/06/19 04:20:11;;;;;;;7.25;0.80;;;;;;;15.35;49.78;100695.59;6313307;22;20091;-91
2022/06/19 04:22:40;;;;;;;5.75;0.90;;;;;;;15.38;50.70;100677.88;6311240;22;20007;-91
2022/06/19 04:25:26;;;;;;;;;;;;;;;;;;;;;
2022/06/19 04:28:23;;;;;;;5.70;1.00;;;;;;;15.40;49.83;100638.28;6340134;22;20077;-91
2022/06/19 04:30:58;;;;;;;6.68;0.90;;;;;;;15.45;50.34;100645.72;6312557;22;20006;-90
2022/06/19 04:33:32;;;;;;;5.97;0.95;;;;;;;15.51;50.75;100647.44;6312474;22;20485;-90
2022/06/19 04:38:56;;;;;;;;;;;;;;;;;;;;;
2022/06/19 04:41:28;;;;;;;6.00;1.10;;;;;;;15.74;51.40;100649.09;6338090;22;20404;-90
2022/06/19 04:44:16;;;;;;;10.20;0.95;;;;;;;15.79;51.75;100646.44;6312378;22;20097;-90
2022/06/19 04:46:45;;;;;;;6.45;0.85;;;;;;;15.87;51.76;100649.81;6312250;22;20416;-90
2022/06/19 04:49:21;;;;;;;4.95;1.20;;;;;;;15.89;51.66;100626.59;6311816;22;20014;-91
2022/06/19 04:51:54;;;;;;;4.68;1.40;;;;;;;15.97;51.55;100584.25;6311267;22;20377;-91
2022/06/19 04:54:30;;;;;;;;;;;;;;;;;;;;;
2022/06/19 04:56:58;;;;;;;9.10;1.05;;;;;;;15.98;51.77;100582.38;6339773;22;20093;-91
2022/06/19 04:59:34;;;;;;;9.00;1.00;;;;;;;16.06;52.35;100576.41;6312487;22;20333;-90
2022/06/19 05:02:02;;;;;;;9.63;1.40;;;;;;;16.02;52.19;100583.50;6311994;22;20002;-90
2022/06/19 05:04:32;;;;;;;5.55;1.02;;;;;;;16.08;51.84;100596.16;6285716;22;20018;-90
2022/06/19 05:07:29;;;;;;;7.23;1.10;;;;;;;16.17;51.88;100635.66;6286577;22;20018;-91
2022/06/19 05:10:13;;;;;;;5.95;1.08;;;;;;;16.13;51.27;100662.69;6288924;22;20044;-90
2022/06/19 05:13:22;;;;;;;7.72;1.42;;;;;;;16.22;51.73;100698.66;6288577;22;20011;-87
2022/06/19 05:16:00;;;;;;;4.47;0.90;;;;;;;16.27;51.63;100681.47;6335618;22;20065;-88
2022/06/19 05:18:35;;;;;;;10.77;1.10;;;;;;;16.23;51.63;100647.50;6314903;22;20090;-89
2022/06/19 05:21:01;;;;;;;7.57;1.30;;;;;;;16.22;52.08;100660.31;6311944;22;20007;-89
2022/06/19 05:23:29;;;;;;;5.68;1.20;;;;;;;16.29;52.28;100671.09;6338600;22;20006;-90
2022/06/19 05:26:02;;;;;;;10.77;1.45;;;;;;;16.38;51.45;100693.34;6312205;22;20052;-88
2022/06/19 05:28:30;;;;;;;5.25;1.00;;;;;;;16.47;50.76;100698.09;6311002;22;20010;-89
2022/06/19 05:31:04;;;;;;;7.60;1.13;;;;;;;16.68;50.44;100725.69;6311799;22;20003;-88
2022/06/19 05:33:59;;;;;;;4.80;0.90;;;;;;;16.90;50.33;100728.38;6312460;22;20030;-89
2022/06/19 05:36:52;;;;;;;7.32;1.42;;;;;;;17.22;49.97;100760.44;6312103;22;20006;-88
2022/06/19 05:39:28;;;;;;;5.30;1.20;;;;;;;17.50;49.19;100780.41;6310559;22;20010;-89
2022/06/19 05:42:05;;;;;;;9.00;1.17;;;;;;;17.66;48.27;100790.38;6311487;22;20036;-88
2022/06/19 05:44:45;;;;;;;7.43;1.50;;;;;;;17.89;48.58;100796.56;6311905;22;20010;-89
2022/06/19 05:47:34;;;;;;;7.43;1.23;;;;;;;18.15;47.97;100788.50;6311148;22;20017;-84
2022/06/19 05:50:12;;;;;;;6.63;1.40;;;;;;;18.40;47.69;100785.03;6338812;22;20413;-87
2022/06/19 05:52:48;;;;;;;6.82;1.25;;;;;;;18.51;47.91;100775.75;6311371;22;20025;-87
2022/06/19 05:55:19;;;;;;;12.27;1.50;;;;;;;18.46;47.58;100788.63;6263272;22;20017;-87
2022/06/19 05:57:56;;;;;;;7.88;1.33;;;;;;;18.43;47.92;100822.13;6311419;22;20013;-86
2022/06/19 06:00:52;;;;;;;;;;;;;;;;;;;;;
2022/06/19 06:03:28;;;;;;;10.23;1.60;;;;;;;18.38;48.00;100821.00;6339141;22;20085;-86
2022/06/19 06:06:01;;;;;;;9.82;1.38;;;;;;;18.30;47.87;100820.69;6311771;22;20491;-89
2022/06/19 06:08:30;;;;;;;6.32;1.10;;;;;;;18.26;48.08;100842.34;6311785;22;20007;-89
2022/06/19 06:11:06;;;;;;;7.18;1.20;;;;;;;18.14;48.59;100861.78;6311510;22;20009;-86
2022/06/19 06:13:32;;;;;;;11.77;1.40;;;;;;;17.97;48.02;100881.19;6311953;22;20500;-87
2022/06/19 06:16:11;;;;;;;;;;;;;;;;;;;;;
2022/06/19 06:18:39;;;;;;;9.88;1.25;;;;;;;17.93;49.05;100880.06;6316045;22;20369;-85
2022/06/19 06:21:08;;;;;;;8.00;1.50;;;;;;;17.88;48.53;100877.25;6313766;22;20356;-86
2022/06/19 06:23:36;;;;;;;11.15;1.52;;;;;;;17.67;49.34;100936.63;6313138;22;20462;-86
2022/06/19 06:26:08;;;;;;;6.33;1.23;;;;;;;17.30;50.55;100983.97;6313770;22;20020;-87
2022/06/19 06:28:48;;;;;;;9.23;1.38;;;;;;;16.98;51.37;100982.81;6312840;22;20002;-86
2022/06/19 06:31:19;;;;;;;8.00;1.52;;;;;;;16.71;54.46;100990.91;6312482;22;20010;-86
2022/06/19 06:33:45;;;;;;;6.32;1.23;;;;;;;16.51;55.21;101050.88;6313395;22;20032;-85
2022/06/19 06:36:13;;;;;;;6.97;1.40;;;;;;;16.05;59.69;101100.22;6313221;22;20082;-85
2022/06/19 06:38:50;;;;;;;;;;;;;;;;;;;;;
2022/06/19 06:41:28;;;;;;;8.82;1.45;;;;;;;14.72;63.05;101112.72;6341313;22;20128;-86
2022/06/19 06:43:59;;;;;;;6.68;1.30;;;;;;;14.52;66.78;101132.13;6196691;22;20008;-86
2022/06/19 06:46:30;;;;;;;13.85;2.00;;;;;;;14.41;67.88;101128.31;6221308;23;20091;-87
2022/06/19 06:48:59;;;;;;;7.83;1.17;;;;;;;14.41;68.47;101114.69;6220865;23;20008;-86
2022/06/19 06:51:35;;;;;;;10.25;1.52;;;;;;;14.57;67.68;101108.53;6220162;23;20086;-88
2022/06/19 06:54:03;;;;;;;8.57;1.25;;;;;;;14.84;65.29;101102.63;6220020;23;20004;-85
2022/06/19 06:56:43;;;;;;;5.65;1.40;;;;;;;15.00;64.91;101075.63;6195959;23;20016;-86
2022/06/19 06:59:11;;;;;;;11.82;1.23;;;;;;;15.21;63.12;101077.75;6221150;23;20422;-86
2022/06/19 07:01:39;;;;;;;7.43;1.20;;;;;;;15.43;62.67;101053.34;6221711;23;20146;-87
2022/06/19 07:04:08;;;;;;;5.95;1.25;;;;;;;15.63;61.11;101071.22;6220814;23;20019;-86
2022/06/19 07:06:42;;;;;;;11.82;1.35;;;;;;;15.80;61.87;101084.97;6220534;23;20066;-86
2022/06/19 07:09:10;;;;;;;9.38;1.60;;;;;;;15.77;61.28;101069.84;6247712;23;20004;-86
2022/06/19 07:11:56;;;;;;;7.78;1.33;;;;;;;15.75;60.37;101082.94;6247374;23;20004;-88
2022/06/19 07:14:21;;;;;;;5.77;1.27;;;;;;;15.64;60.22;101099.41;6220891;23;20087;-86
2022/06/19 07:16:52;;;;;;;7.03;1.30;;;;;;;15.54;60.90;101133.66;6247632;23;20066;-86
2022/06/19 07:19:25;;;;;;;6.30;1.05;;;;;;;15.34;62.11;101123.13;6220733;23;20004;-86
2022/06/19 07:21:53;;;;;;;5.63;1.20;;;;;;;15.31;63.71;101122.78;6221311;23;20062;-86
2022/06/19 07:24:21;;;;;;;9.10;1.50;;;;;;;15.14;64.45;101087.97;6220414;23;20446;-86
2022/06/19 07:26:47;;;;;;;8.77;1.63;;;;;;;15.08;67.21;101056.16;6220332;23;20054;-86
2022/06/19 07:32:19;;;;;;;6.85;1.48;;;;;;;14.88;72.89;101012.81;6225659;23;20437;-87
2022/06/19 07:34:58;;;;;;;9.85;1.35;;;;;;;14.78;72.67;100991.59;6220470;23;20012;-88
2022/06/19 07:37:55;;;;;;;8.68;1.30;;;;;;;14.72;72.59;100963.34;6220475;23;20005;-87
2022/06/19 07:58:29;;;;;;;11.18;1.63;;;;;;;14.87;75.59;101098.59;6008442;23;20335;-88
2022/06/19 08:01:03;;;;;;;14.97;1.80;;;;;;;14.69;80.24;101097.63;5993785;23;20014;-86
2022/06/19 08:03:35;;;;;;;8.05;1.70;;;;;;;14.62;81.81;101063.34;6120859;23;20436;-87
2022/06/19 08:06:48;;;;;;;;;;;;;;;;;;;;;
2022/06/19 08:09:54;;;;;;;10.32;1.55;;;;;;;14.66;79.92;101039.91;6204674;23;20083;-86
2022/06/19 08:12:43;;;;;;;;;;;;;;;;;;;;;
2022/06/19 08:15:15;;;;;;;9.93;1.80;;;;;;;14.74;81.46;101015.00;6222245;23;20087;-87
2022/06/19 08:18:14;;;;;;;;;;;;;;;;;;;;;
2022/06/19 08:21:02;;;;;;;;;;;;;;;;;;;;;
2022/06/19 08:24:07;;;;;;;;;;;;;;;;;;;;;
2022/06/19 08:30:03;;;;;;;;;;;;;;;;;;;;;
2022/06/19 08:32:38;;;;;;;;;;;;;;;;;;;;;
2022/06/19 08:35:15;;;;;;;10.20;2.03;;;;;;;15.48;81.42;100965.09;6221996;23;20477;-87
2022/06/19 08:38:08;;;;;;;9.73;1.80;;;;;;;15.41;82.46;100950.75;6219025;23;20015;-87
2022/06/19 08:41:03;;;;;;;;;;;;;;;;;;;;;
2022/06/19 08:44:04;;;;;;;;;;;;;;;;;;;;;
2022/06/19 08:47:12;;;;;;;13.10;1.90;;;;;;;15.89;80.93;100878.31;6246808;23;20079;-90
2022/06/19 08:50:08;;;;;;;9.45;2.15;;;;;;;16.19;79.29;100879.81;6220268;23;20505;-89
2022/06/19 08:53:12;;;;;;;;;;;;;;;;;;;;;
2022/06/19 08:56:16;;;;;;;9.60;1.85;;;;;;;16.58;77.18;100914.56;6246799;23;20103;-89
2022/06/19 08:59:20;;;;;;;10.77;2.10;;;;;;;16.84;74.64;100908.34;6219795;23;20050;-89
2022/06/19 09:05:50;;;;;;;;;;;;;;;;;;;;;
2022/06/19 09:08:36;;;;;;;12.00;2.20;;;;;;;17.54;72.23;100957.91;6229738;23;20082;-87
2022/06/19 09:11:48;;;;;;;10.25;2.13;;;;;;;17.67;72.14;100967.66;6220508;23;20008;-89
2022/06/19 09:14:19;;;;;;;8.37;1.87;;;;;;;17.91;69.92;100989.28;6219735;23;20039;-88
2022/06/19 09:17:02;;;;;;;9.80;1.65;;;;;;;18.18;67.64;101040.59;6219753;23;20008;-88
2022/06/19 09:19:43;;;;;;;8.65;2.00;;;;;;;18.63;67.81;101064.00;6219613;23;20012;-88
2022/06/19 09:23:02;;;;;;;;;;;;;;;;;;;;;
2022/06/19 09:25:55;;;;;;;10.18;1.90;;;;;;;19.07;66.69;101060.16;6246730;23;20067;-88
2022/06/19 09:28:49;;;;;;;10.27;2.10;;;;;;;19.30;63.80;101038.81;6246554;23;20082;-89
2022/06/19 09:31:43;;;;;;;8.77;1.85;;;;;;;19.67;62.84;101033.16;6219624;23;20004;-88
2022/06/19 09:34:38;;;;;;;7.13;1.80;;;;;;;19.91;61.28;101018.91;6193838;23;20004;-88
2022/06/19 09:37:39;;;;;;;8.88;1.90;;;;;;;20.21;60.41;101009.81;6219997;23;20470;-88
2022/06/19 09:40:45;;;;;;;10.18;1.63;;;;;;;20.64;58.40;100992.94;6197941;23;20032;-89
2022/06/19 09:43:42;;;;;;;;;;;;;;;;;;;;;
2022/06/19 09:46:25;;;;;;;6.90;2.13;;;;;;;22.09;54.19;100960.69;6246119;23;20087;-88
2022/06/19 09:49:03;;;;;;;8.27;1.88;;;;;;;22.49;51.32;100938.50;6219014;23;20016;-88
2022/06/19 09:51:45;;;;;;;5.63;1.90;;;;;;;22.52;53.61;100935.94;6218236;23;20070;-88
2022/06/19 09:58:10;;;;;;;7.90;2.20;;;;;;;22.51;53.17;100953.66;6217368;23;20388;-89
2022/06/19 10:04:25;;;;;;;8.98;2.08;;;;;;;22.34;51.92;100911.84;6229238;23;20338;-88
2022/06/19 10:14:18;;;;;;;9.13;2.07;;;;;;;23.44;52.32;100892.41;6113306;23;20006;-87
2022/06/19 10:17:31;;;;;;;;;;;;;;;;;;;;;
2022/06/19 10:20:21;;;;;;;7.88;1.83;;;;;;;23.39;50.42;100886.13;6203118;23;20086;-87
2022/06/19 10:26:25;;;;;;;7.20;1.83;;;;;;;23.55;47.90;100879.22;6224063;23;20008;-87
2022/06/19 10:29:35;;;;;;;;;;;;;;;;;;;;;
2022/06/19 10:32:34;;;;;;;7.25;1.75;;;;;;;24.26;45.40;100898.50;6245990;23;20063;-87
2022/06/19 10:35:18;;;;;;;6.50;2.03;;;;;;;24.55;46.75;100913.19;6218928;23;20004;-87
2022/06/19 10:38:39;;;;;;;6.85;1.98;;;;;;;24.86;45.52;100908.66;6218915;23;20016;-87
2022/06/19 10:42:04;;;;;;;4.20;1.65;;;;;;;24.76;42.62;100897.78;6099030;23;20021;-87
2022/06/19 10:45:03;;;;;;;;;;;;;;;;;;;;;
2022/06/19 10:48:13;;;;;;;4.75;1.80;;;;;;;25.94;41.14;100904.47;6198069;23;20080;-88
2022/06/19 10:54:45;;;;;;;6.32;1.70;;;;;;;26.81;38.39;100918.81;6203807;23;20335;-87
2022/06/19 10:57:24;;;;;;;;;;;;;;;;;;;;;
2022/06/19 11:00:31;;;;;;;6.07;1.80;;;;;;;27.17;35.13;100948.31;6216299;23;20385;-86
2022/06/19 11:06:49;;;;;;;4.50;1.33;;;;;;;27.74;36.75;100958.53;6210201;23;20104;-88
2022/06/19 11:09:44;;;;;;;5.30;1.40;;;;;;;28.23;35.16;100951.88;6189958;23;20061;-88
2022/06/19 11:12:31;;;;;;;3.20;1.60;;;;;;;28.67;34.46;100941.38;6190029;23;20012;-88
2022/06/19 11:15:41;;;;;;;6.17;1.90;;;;;;;29.28;33.48;100946.63;6189933;23;20060;-88
2022/06/19 11:22:28;;;;;;;5.07;2.05;;;;;;;28.86;34.06;100971.66;6198541;23;20087;-87
2022/06/19 11:25:31;;;;;;;;;;;;;;;;;;;;;
2022/06/19 11:28:53;;;;;;;6.03;1.83;;;;;;;28.22;34.89;100967.00;6216054;23;20095;-88
2022/06/19 11:31:42;;;;;;;3.77;1.63;;;;;;;28.68;33.56;100976.53;6208211;23;20088;-87
2022/06/19 11:41:41;;;;;;;;;;;;;;;;;;;;;
2022/06/19 11:45:10;;;;;;;4.22;1.80;;;;;;;29.85;31.24;100964.72;6181134;23;20083;-88
2022/06/19 11:51:32;;;;;;;4.82;2.00;;;;;;;30.78;30.51;100981.13;6065822;23;20046;-89
2022/06/19 11:54:48;;;;;;;5.15;1.95;;;;;;;32.20;29.82;101009.41;6012506;23;20101;-87
2022/06/19 11:58:34;;;;;;;7.18;2.05;;;;;;;33.09;28.39;101007.22;6065854;23;20098;-87
2022/06/19 12:04:56;;;;;;;4.87;2.20;;;;;;;31.80;27.74;101032.69;6071389;23;20835;-88
2022/06/19 12:08:18;;;;;;;;;;;;;;;;;;;;;
2022/06/19 12:11:39;;;;;;;;;;;;;;;;;;;;;
2022/06/19 12:18:12;;;;;;;3.75;2.00;;;;;;;29.84;29.47;101100.09;6128483;23;20125;-87
2022/06/19 12:21:04;;;;;;;;;;;;;;;;;;;;;
2022/06/19 12:24:31;;;;;;;7.07;2.42;;;;;;;29.82;31.70;101119.19;6182961;23;20092;-88
2022/06/19 12:27:06;;;;;;;8.90;2.28;;;;;;;28.87;32.13;101124.91;6135290;23;20012;-87
2022/06/19 12:30:00;;;;;;;6.05;2.40;;;;;;;28.24;33.80;101141.22;6156744;23;20460;-87
2022/06/19 12:32:39;;;;;;;6.57;2.58;;;;;;;27.54;34.72;101168.19;6200884;23;20115;-87
2022/06/19 12:35:50;;;;;;;8.27;2.90;;;;;;;26.95;36.14;101144.97;6219379;23;20410;-87
2022/06/19 12:38:36;;;;;;;;;;;;;;;;;;;;;
2022/06/19 12:41:18;;;;;;;7.35;2.53;;;;;;;25.02;40.87;101160.88;6182174;23;20105;-84
2022/06/19 12:44:10;;;;;;;8.80;2.30;;;;;;;24.17;43.31;101160.88;6158084;23;20013;-86
2022/06/19 12:47:06;;;;;;;7.00;2.40;;;;;;;23.62;44.76;101166.84;6193972;23;20438;-85
2022/06/19 12:50:04;;;;;;;8.23;2.50;;;;;;;23.40;45.26;101165.47;6219446;23;20008;-85
2022/06/19 12:52:44;;;;;;;9.18;1.98;;;;;;;23.01;46.40;101182.97;6218495;23;20031;-85
2022/06/19 12:55:29;;;;;;;9.45;2.45;;;;;;;22.59;48.50;101188.03;6245673;23;20426;-85
2022/06/19 12:58:13;;;;;;;8.65;1.73;;;;;;;22.13;48.79;101184.72;6219107;23;20034;-85
2022/06/19 13:00:50;;;;;;;6.88;1.80;;;;;;;21.77;50.30;101180.22;6219784;23;20019;-85
2022/06/19 13:03:34;;;;;;;11.13;2.47;;;;;;;21.46;51.53;101155.44;6219274;23;20008;-85
2022/06/19 13:06:11;;;;;;;6.03;1.88;;;;;;;21.19;51.89;101147.53;6245960;23;20015;-85
2022/06/19 13:08:55;;;;;;;7.45;2.20;;;;;;;21.07;52.35;101135.97;6219293;23;20086;-85
2022/06/19 13:11:45;;;;;;;9.30;2.08;;;;;;;20.88;53.26;101119.22;6219439;23;20337;-85
2022/06/19 13:14:13;;;;;;;6.15;2.45;;;;;;;20.56;54.28;101114.78;6219381;23;20008;-85
2022/06/19 13:17:00;;;;;;;11.10;2.27;;;;;;;20.18;55.19;101117.78;6218750;23;20004;-85
2022/06/19 13:19:54;;;;;;;10.15;2.20;;;;;;;19.81;55.89;101121.56;6219520;23;20012;-84
2022/06/19 13:22:38;;;;;;;10.40;2.15;;;;;;;19.67;58.82;101123.16;6218562;23;20008;-85
2022/06/19 13:25:24;;;;;;;12.15;2.20;;;;;;;19.67;57.60;101143.25;6218420;23;20107;-85
2022/06/19 13:28:11;;;;;;;11.40;2.25;;;;;;;19.39;59.62;101170.06;6246108;23;20008;-86
2022/06/19 13:31:01;;;;;;;12.67;2.37;;;;;;;19.25;59.85;101215.66;6218611;23;20058;-85
2022/06/19 13:33:34;;;;;;;13.48;2.50;;;;;;;19.08;60.25;101257.88;6218960;23;20479;-85
2022/06/19 13:36:31;;;;;;;9.20;2.53;;;;;;;18.92;61.93;101267.09;6218474;23;20090;-85
2022/06/19 13:38:59;;;;;;;8.50;2.40;;;;;;;18.78;61.63;101283.19;6218337;23;20018;-85
2022/06/19 13:41:47;;;;;;;10.93;2.30;;;;;;;18.66;62.17;101277.00;6218165;23;20497;-85
2022/06/19 13:44:27;;;;;;;7.67;2.37;;;;;;;18.61;61.76;101290.69;6219030;23;20008;-85
2022/06/19 13:46:57;;;;;;;8.02;2.08;;;;;;;18.62;63.04;101295.91;6217313;23;20076;-85
2022/06/19 13:49:59;;;;;;;11.07;2.70;;;;;;;18.61;61.98;101290.69;6245970;23;20004;-85
2022/06/19 13:52:47;;;;;;;10.75;2.40;;;;;;;18.55;62.57;101290.63;6218024;23;20330;-85
2022/06/19 13:55:47;;;;;;;11.90;2.30;;;;;;;18.70;61.67;101286.38;6245573;23;20043;-84
2022/06/19 13:58:28;;;;;;;9.47;2.10;;;;;;;18.80;62.38;101271.91;6218986;23;20012;-86
2022/06/19 14:01:12;;;;;;;10.35;2.22;;;;;;;18.91;62.42;101268.19;6217369;23;20036;-92
2022/06/19 14:07:39;;;;;;;9.85;2.25;;;;;;;19.54;60.36;101254.63;6231551;23;20365;-84
2022/06/19 14:10:39;;;;;;;6.90;2.05;;;;;;;19.91;58.48;101253.75;6245990;23;20012;-84
2022/06/19 14:13:11;;;;;;;7.13;2.10;;;;;;;20.36;57.49;101226.66;6219438;23;20004;-84
2022/06/19 14:15:57;;;;;;;5.20;2.00;;;;;;;20.97;56.47;101234.19;6219668;23;20015;-84
2022/06/19 14:18:32;;;;;;;7.93;2.00;;;;;;;21.46;55.56;101212.59;6219416;23;20008;-84
2022/06/19 14:21:02;;;;;;;7.00;1.88;;;;;;;21.64;54.17;101217.56;6219582;23;20015;-84
2022/06/19 14:23:47;;;;;;;9.30;1.90;;;;;;;21.72;53.33;101205.91;6219073;23;20019;-84
2022/06/19 14:26:45;;;;;;;5.63;1.43;;;;;;;21.49;53.41;101215.63;6219805;23;20008;-85
2022/06/19 14:29:35;;;;;;;7.15;2.03;;;;;;;21.70;52.86;101221.09;6219604;23;20011;-85
2022/06/19 14:32:03;;;;;;;7.45;1.95;;;;;;;22.28;52.62;101228.88;6246255;23;20000;-84
2022/06/19 14:34:45;;;;;;;8.00;1.80;;;;;;;22.41;51.54;101222.75;6218927;23;20320;-84
2022/06/19 14:37:26;;;;;;;6.45;2.10;;;;;;;22.20;52.28;101235.81;6221630;23;20004;-84
2022/06/19 14:39:52;;;;;;;9.70;2.17;;;;;;;21.86;53.27;101250.31;6248327;23;20004;-85
2022/06/19 14:42:18;;;;;;;9.18;2.25;;;;;;;21.40;53.83;101228.34;6220850;23;20032;-85
2022/06/19 14:44:52;;;;;;;8.63;2.50;;;;;;;21.30;54.55;101207.09;6195944;23;20336;-85
2022/06/19 14:47:36;;;;;;;8.07;2.03;;;;;;;21.21;54.72;101222.56;6248970;23;20231;-85